Time,TemperatureF,DewpointF,PressureIn,WindDirection,WindDirectionDegrees,WindSpeedMPH,WindSpeedGustMPH,Humidity,HourlyPrecipIn,Conditions,Clouds,dailyrainin,SoftwareType,DateUTC
2013-02-11 00:00:00,5.9,-2.7,30.34,South,180,0.0,0.0,67,0.00,,,0.00,pywws,2013-02-11 05:00:00,
2013-02-11 00:01:00,5.9,-2.7,30.34,South,180,0.0,0.0,67,0.00,,,0.00,pywws,2013-02-11 05:01:00,
2013-02-11 00:07:00,5.7,-2.8,30.33,South,180,0.0,0.0,67,0.00,,,0.00,pywws,2013-02-11 05:07:00,
2013-02-11 00:08:00,5.7,-2.8,30.33,South,180,0.0,0.0,67,0.00,,,0.00,pywws,2013-02-11 05:08:00,
2013-02-11 00:13:00,6.1,-2.5,30.33,South,180,0.0,0.0,67,0.00,,,0.00,pywws,2013-02-11 05:13:00,
2013-02-11 00:20:00,6.1,-2.5,30.33,South,180,0.0,0.0,67,0.00,,,0.00,pywws,2013-02-11 05:20:00,
2013-02-11 00:25:00,5.7,-2.8,30.32,South,180,0.0,0.0,67,0.00,,,0.00,pywws,2013-02-11 05:25:00,
2013-02-11 00:31:00,6.6,-2.0,30.32,South,180,0.0,0.0,67,0.00,,,0.00,pywws,2013-02-11 05:31:00,
2013-02-11 00:36:00,6.6,-2.0,30.32,South,180,0.0,0.0,67,0.00,,,0.00,pywws,2013-02-11 05:36:00,
2013-02-11 00:42:00,7.2,-1.5,30.32,South,180,0.0,0.0,67,0.00,,,0.00,pywws,2013-02-11 05:42:00,
2013-02-11 00:48:00,7.2,-1.8,30.32,South,180,0.0,0.0,66,0.00,,,0.00,pywws,2013-02-11 05:48:00,
2013-02-11 00:54:00,7.2,-1.8,30.32,SW,225,0.0,0.0,66,0.00,,,0.00,pywws,2013-02-11 05:54:00,
2013-02-11 01:00:00,8.4,-0.2,30.32,SW,225,0.0,0.0,67,0.00,,,0.00,pywws,2013-02-11 06:00:00,
2013-02-11 01:05:00,7.9,-0.8,30.31,SW,225,0.0,0.0,67,0.00,,,0.00,pywws,2013-02-11 06:05:00,
2013-02-11 01:11:00,7.9,-1.1,30.32,SW,225,0.0,0.0,66,0.00,,,0.00,pywws,2013-02-11 06:11:00,
2013-02-11 01:17:00,7.7,-1.3,30.31,SW,225,0.0,0.0,66,0.00,,,0.00,pywws,2013-02-11 06:17:00,
2013-02-11 01:22:00,7.7,-1.3,30.31,SW,225,0.0,0.0,66,0.00,,,0.00,pywws,2013-02-11 06:22:00,
2013-02-11 01:28:00,8.6,-0.7,30.31,SW,225,0.0,0.0,65,0.00,,,0.00,pywws,2013-02-11 06:28:00,
2013-02-11 01:33:00,8.4,-0.6,30.30,SW,225,0.0,0.0,66,0.00,,,0.00,pywws,2013-02-11 06:33:00,
2013-02-11 01:40:00,8.4,-0.6,30.30,SW,225,0.0,0.0,66,0.00,,,0.00,pywws,2013-02-11 06:40:00,
2013-02-11 01:45:00,8.8,-0.5,30.29,SW,225,0.0,0.0,65,0.00,,,0.00,pywws,2013-02-11 06:45:00,
2013-02-11 01:51:00,9.0,-0.4,30.29,SW,225,0.0,0.0,65,0.00,,,0.00,pywws,2013-02-11 06:51:00,
2013-02-11 01:56:00,9.0,-0.4,30.29,SW,225,0.0,0.0,65,0.00,,,0.00,pywws,2013-02-11 06:56:00,
2013-02-11 02:02:00,9.0,-0.4,30.28,SW,225,0.0,0.0,65,0.00,,,0.00,pywws,2013-02-11 07:02:00,
2013-02-11 02:08:00,9.3,0.0,30.29,SW,225,0.0,0.0,65,0.00,,,0.00,pywws,2013-02-11 07:08:00,
2013-02-11 02:13:00,9.5,0.1,30.29,SW,225,0.0,0.0,65,0.00,,,0.00,pywws,2013-02-11 07:13:00,
2013-02-11 02:19:00,9.7,0.3,30.29,SW,225,0.0,0.0,65,0.00,,,0.00,pywws,2013-02-11 07:19:00,
2013-02-11 02:24:00,9.9,0.8,30.28,SW,225,0.0,0.0,66,0.00,,,0.00,pywws,2013-02-11 07:24:00,
2013-02-11 02:30:00,10.6,2.8,30.28,SW,225,0.0,0.0,70,0.00,,,0.00,pywws,2013-02-11 07:30:00,
2013-02-11 02:36:00,10.8,2.9,30.27,SW,225,0.0,0.0,70,0.00,,,0.00,pywws,2013-02-11 07:36:00,
2013-02-11 02:41:00,11.3,3.5,30.28,SW,225,0.0,0.0,70,0.00,,,0.00,pywws,2013-02-11 07:41:00,
2013-02-11 02:47:00,11.3,3.5,30.27,SW,225,0.0,0.0,70,0.00,,,0.00,pywws,2013-02-11 07:47:00,
2013-02-11 02:52:00,11.7,3.8,30.27,SW,225,0.0,0.0,70,0.00,,,0.00,pywws,2013-02-11 07:52:00,
2013-02-11 02:59:00,11.7,3.8,30.27,SW,225,0.0,0.0,70,0.00,,,0.00,pywws,2013-02-11 07:59:00,
2013-02-11 03:04:00,12.0,4.1,30.27,SW,225,0.0,0.0,70,0.00,,,0.00,pywws,2013-02-11 08:04:00,
2013-02-11 03:10:00,12.4,4.2,30.26,SW,225,0.0,0.0,69,0.00,,,0.00,pywws,2013-02-11 08:10:00,
2013-02-11 03:16:00,12.6,4.4,30.26,SW,225,0.0,0.0,69,0.00,,,0.00,pywws,2013-02-11 08:16:00,
2013-02-11 03:21:00,13.1,4.9,30.26,SW,225,0.0,0.0,69,0.00,,,0.00,pywws,2013-02-11 08:21:00,
2013-02-11 03:27:00,13.5,5.2,30.26,SW,225,0.0,0.0,69,0.00,,,0.00,pywws,2013-02-11 08:27:00,
2013-02-11 03:32:00,13.6,5.4,30.26,SW,225,0.0,0.0,69,0.00,,,0.00,pywws,2013-02-11 08:32:00,
2013-02-11 03:40:00,14.0,5.4,30.25,SW,225,0.0,0.0,68,0.00,,,0.00,pywws,2013-02-11 08:40:00,
2013-02-11 03:45:00,14.2,5.3,30.25,SW,225,0.0,0.0,67,0.00,,,0.00,pywws,2013-02-11 08:45:00,
2013-02-11 03:51:00,14.2,5.3,30.25,SW,225,0.0,0.0,67,0.00,,,0.00,pywws,2013-02-11 08:51:00,
2013-02-11 03:57:00,14.4,5.1,30.25,SW,225,0.0,0.0,66,0.00,,,0.00,pywws,2013-02-11 08:57:00,
2013-02-11 04:03:00,14.7,5.5,30.24,SW,225,0.0,0.0,66,0.00,,,0.00,pywws,2013-02-11 09:03:00,
2013-02-11 04:08:00,14.5,5.3,30.24,SW,225,0.0,0.0,66,0.00,,,0.00,pywws,2013-02-11 09:08:00,
2013-02-11 04:14:00,14.7,5.5,30.24,SW,225,0.0,0.0,66,0.00,,,0.00,pywws,2013-02-11 09:14:00,
2013-02-11 04:20:00,14.7,5.5,30.24,SW,225,0.0,0.0,66,0.00,,,0.00,pywws,2013-02-11 09:20:00,
2013-02-11 04:25:00,14.9,5.6,30.23,SW,225,0.0,0.0,66,0.00,,,0.00,pywws,2013-02-11 09:25:00,
2013-02-11 04:31:00,14.9,5.6,30.23,SW,225,0.0,0.0,66,0.00,,,0.00,pywws,2013-02-11 09:31:00,
2013-02-11 04:37:00,15.1,5.8,30.23,SW,225,0.0,0.0,66,0.00,,,0.00,pywws,2013-02-11 09:37:00,
2013-02-11 04:44:00,15.4,6.1,30.22,SW,225,0.0,0.0,66,0.00,,,0.00,pywws,2013-02-11 09:44:00,
2013-02-11 04:49:00,15.3,6.0,30.22,SW,225,0.0,0.0,66,0.00,,,0.00,pywws,2013-02-11 09:49:00,
2013-02-11 04:55:00,15.3,6.0,30.22,SW,225,0.0,0.0,66,0.00,,,0.00,pywws,2013-02-11 09:55:00,
2013-02-11 05:00:00,15.4,6.1,30.22,SW,225,0.0,0.0,66,0.00,,,0.00,pywws,2013-02-11 10:00:00,
2013-02-11 05:08:00,16.0,6.0,30.23,SW,225,0.0,0.0,64,0.00,,,0.00,pywws,2013-02-11 10:08:00,
2013-02-11 05:14:00,16.3,6.3,30.23,SW,225,0.0,0.0,64,0.00,,,0.00,pywws,2013-02-11 10:14:00,
2013-02-11 05:20:00,16.5,6.5,30.22,SW,225,0.0,0.0,64,0.00,,,0.00,pywws,2013-02-11 10:20:00,
2013-02-11 05:25:00,16.5,6.2,30.23,SW,225,0.0,0.0,63,0.00,,,0.00,pywws,2013-02-11 10:25:00,
2013-02-11 05:31:00,16.7,6.3,30.23,SW,225,0.0,0.0,63,0.00,,,0.00,pywws,2013-02-11 10:31:00,
2013-02-11 05:37:00,17.1,6.7,30.23,SW,225,0.0,0.0,63,0.00,,,0.00,pywws,2013-02-11 10:37:00,
2013-02-11 05:43:00,17.1,6.7,30.22,SW,225,0.0,0.0,63,0.00,,,0.00,pywws,2013-02-11 10:43:00,
2013-02-11 05:49:00,17.4,7.0,30.21,SW,225,0.0,0.0,63,0.00,,,0.00,pywws,2013-02-11 10:49:00,
2013-02-11 05:55:00,17.4,7.0,30.20,SW,225,0.0,0.0,63,0.00,,,0.00,pywws,2013-02-11 10:55:00,
2013-02-11 06:00:00,17.8,6.6,30.20,SW,225,0.0,0.0,61,0.00,,,0.00,pywws,2013-02-11 11:00:00,
2013-02-11 06:06:00,18.0,6.8,30.20,SW,225,0.0,0.0,61,0.00,,,0.00,pywws,2013-02-11 11:06:00,
2013-02-11 06:13:00,18.1,7.0,30.21,SW,225,0.0,0.0,61,0.00,,,0.00,pywws,2013-02-11 11:13:00,
2013-02-11 06:19:00,18.1,7.0,30.20,SW,225,0.0,0.0,61,0.00,,,0.00,pywws,2013-02-11 11:19:00,
2013-02-11 06:24:00,18.5,7.7,30.20,SW,225,0.0,0.0,62,0.00,,,0.00,pywws,2013-02-11 11:24:00,
2013-02-11 06:30:00,19.0,8.2,30.20,SW,225,0.0,0.0,62,0.00,,,0.00,pywws,2013-02-11 11:30:00,
2013-02-11 06:38:00,19.4,9.9,30.20,SW,225,0.0,0.0,66,0.00,,,0.00,pywws,2013-02-11 11:38:00,
2013-02-11 06:44:00,19.6,10.1,30.20,West,270,0.0,0.0,66,0.00,,,0.00,pywws,2013-02-11 11:44:00,
2013-02-11 06:49:00,19.6,10.1,30.20,West,270,0.0,0.0,66,0.00,,,0.00,pywws,2013-02-11 11:49:00,
2013-02-11 06:56:00,20.1,10.6,30.20,South,180,0.0,0.0,66,0.00,,,0.00,pywws,2013-02-11 11:56:00,
2013-02-11 07:01:00,20.3,10.8,30.19,South,180,0.0,0.0,66,0.00,,,0.00,pywws,2013-02-11 12:01:00,
2013-02-11 07:07:00,20.7,11.1,30.19,South,180,0.0,0.0,66,0.00,,,0.00,pywws,2013-02-11 12:07:00,
2013-02-11 07:12:00,21.0,11.8,30.19,South,180,0.0,0.0,67,0.00,,,0.00,pywws,2013-02-11 12:12:00,
2013-02-11 07:18:00,21.4,11.8,30.18,South,180,0.0,0.0,66,0.00,,,0.00,pywws,2013-02-11 12:18:00,
2013-02-11 07:24:00,21.9,12.3,30.18,South,180,0.0,0.0,66,0.00,,,0.00,pywws,2013-02-11 12:24:00,
2013-02-11 07:30:00,22.5,12.5,30.17,South,180,0.0,0.0,65,0.00,,,0.00,pywws,2013-02-11 12:30:00,
2013-02-11 07:36:00,22.5,12.5,30.17,South,180,0.0,0.0,65,0.00,,,0.00,pywws,2013-02-11 12:36:00,
2013-02-11 07:41:00,23.2,12.8,30.17,South,180,0.0,0.0,64,0.00,,,0.00,pywws,2013-02-11 12:41:00,
2013-02-11 07:48:00,23.9,13.5,30.16,South,180,0.0,0.0,64,0.00,,,0.00,pywws,2013-02-11 12:48:00,
2013-02-11 07:54:00,23.5,12.8,30.16,South,180,0.0,0.0,63,0.00,,,0.00,pywws,2013-02-11 12:54:00,
2013-02-11 08:00:00,23.5,13.2,30.15,South,180,0.0,0.0,64,0.00,,,0.00,pywws,2013-02-11 13:00:00,
2013-02-11 08:06:00,23.7,13.3,30.16,South,180,0.0,0.0,64,0.00,,,0.00,pywws,2013-02-11 13:06:00,
2013-02-11 08:13:00,23.7,13.3,30.15,South,180,0.0,0.0,64,0.00,,,0.00,pywws,2013-02-11 13:13:00,
2013-02-11 08:20:00,24.3,14.2,30.14,South,180,0.0,0.0,65,0.00,,,0.00,pywws,2013-02-11 13:20:00,
2013-02-11 08:25:00,24.8,14.4,30.14,South,180,0.0,0.0,64,0.00,,,0.00,pywws,2013-02-11 13:25:00,
2013-02-11 08:31:00,25.2,14.7,30.12,South,180,0.0,0.0,64,0.00,,,0.00,pywws,2013-02-11 13:31:00,
2013-02-11 08:36:00,25.2,15.1,30.12,South,180,0.0,0.0,65,0.00,,,0.00,pywws,2013-02-11 13:36:00,
2013-02-11 08:42:00,26.8,16.3,30.12,South,180,0.0,0.0,64,0.00,,,0.00,pywws,2013-02-11 13:42:00,
2013-02-11 08:48:00,27.3,16.8,30.11,South,180,0.0,0.0,64,0.00,,,0.00,pywws,2013-02-11 13:48:00,
2013-02-11 08:54:00,26.6,15.7,30.11,South,180,0.0,0.0,63,0.00,,,0.00,pywws,2013-02-11 13:54:00,
2013-02-11 09:00:00,26.8,15.9,30.10,South,180,0.0,0.0,63,0.00,,,0.00,pywws,2013-02-11 14:00:00,
2013-02-11 09:05:00,28.0,17.1,30.10,South,180,0.0,0.0,63,0.00,,,0.00,pywws,2013-02-11 14:05:00,
2013-02-11 09:11:00,27.7,17.1,30.09,South,180,0.0,0.0,64,0.00,,,0.00,pywws,2013-02-11 14:11:00,
2013-02-11 09:16:00,28.4,19.2,30.09,South,180,0.0,0.0,68,0.00,,,0.00,pywws,2013-02-11 14:16:00,
2013-02-11 09:22:00,28.6,19.7,30.08,South,180,0.0,0.0,69,0.00,,,0.00,pywws,2013-02-11 14:22:00,
2013-02-11 09:28:00,28.8,20.2,30.08,South,180,0.0,0.0,70,0.00,,,0.00,pywws,2013-02-11 14:28:00,
2013-02-11 09:34:00,28.9,21.4,30.07,West,270,0.0,0.0,73,0.00,,,0.00,pywws,2013-02-11 14:34:00,
2013-02-11 09:40:00,29.3,22.4,30.06,West,270,0.0,0.0,75,0.00,,,0.00,pywws,2013-02-11 14:40:00,
2013-02-11 09:45:00,30.0,23.1,30.06,West,270,0.0,0.0,75,0.00,,,0.00,pywws,2013-02-11 14:45:00,
2013-02-11 09:52:00,30.6,23.6,30.06,West,270,0.0,0.0,75,0.00,,,0.00,pywws,2013-02-11 14:52:00,
2013-02-11 09:57:00,31.5,24.8,30.05,West,270,0.0,0.0,76,0.00,,,0.00,pywws,2013-02-11 14:57:00,
2013-02-11 10:03:00,32.4,25.3,30.05,SW,225,0.0,0.0,75,0.00,,,0.00,pywws,2013-02-11 15:03:00,
2013-02-11 10:08:00,32.4,25.7,30.04,West,270,0.0,0.0,76,0.00,,,0.00,pywws,2013-02-11 15:08:00,
2013-02-11 10:16:00,32.7,26.0,30.03,West,270,0.0,0.0,76,0.00,,,0.00,pywws,2013-02-11 15:16:00,
2013-02-11 10:21:00,32.5,26.1,30.04,West,270,0.0,0.0,77,0.00,,,0.00,pywws,2013-02-11 15:21:00,
2013-02-11 10:28:00,32.5,26.5,30.03,West,270,0.0,0.0,78,0.00,,,0.00,pywws,2013-02-11 15:28:00,
2013-02-11 10:33:00,32.5,26.5,30.03,West,270,0.0,0.0,78,0.00,,,0.00,pywws,2013-02-11 15:33:00,
2013-02-11 10:39:00,32.7,26.6,30.02,West,270,0.0,0.0,78,0.01,,,0.01,pywws,2013-02-11 15:39:00,
2013-02-11 10:44:00,33.1,27.3,30.02,West,270,0.0,0.0,79,0.01,,,0.01,pywws,2013-02-11 15:44:00,
2013-02-11 10:50:00,34.0,27.9,30.00,West,270,0.0,0.0,78,0.02,,,0.02,pywws,2013-02-11 15:50:00,
2013-02-11 10:56:00,34.5,28.7,30.00,SW,225,0.0,0.0,79,0.02,,,0.02,pywws,2013-02-11 15:56:00,
2013-02-11 11:01:00,34.7,28.9,30.00,West,270,0.0,0.0,79,0.02,,,0.02,pywws,2013-02-11 16:01:00,
2013-02-11 11:08:00,35.6,29.4,29.99,West,270,0.0,0.0,78,0.02,,,0.02,pywws,2013-02-11 16:08:00,
2013-02-11 11:13:00,35.4,29.6,29.98,West,270,0.0,0.0,79,0.04,,,0.04,pywws,2013-02-11 16:13:00,
2013-02-11 11:19:00,35.8,29.6,29.98,West,270,0.0,0.0,78,0.04,,,0.04,pywws,2013-02-11 16:19:00,
2013-02-11 11:24:00,35.6,29.7,29.97,West,270,0.0,0.0,79,0.05,,,0.05,pywws,2013-02-11 16:24:00,
2013-02-11 11:30:00,35.8,29.9,29.97,SW,225,0.0,0.0,79,0.05,,,0.05,pywws,2013-02-11 16:30:00,
2013-02-11 11:36:00,35.8,29.9,29.96,West,270,0.0,0.0,79,0.04,,,0.05,pywws,2013-02-11 16:36:00,
2013-02-11 11:42:00,36.1,30.3,29.95,West,270,0.0,0.0,79,0.05,,,0.06,pywws,2013-02-11 16:42:00,
2013-02-11 11:48:00,36.3,30.4,29.94,West,270,0.0,0.0,79,0.06,,,0.07,pywws,2013-02-11 16:48:00,
2013-02-11 11:53:00,36.1,30.3,29.94,West,270,0.0,0.0,79,0.05,,,0.07,pywws,2013-02-11 16:53:00,
2013-02-11 12:00:00,36.7,31.1,29.93,South,180,0.0,0.0,80,0.05,,,0.07,pywws,2013-02-11 17:00:00,
2013-02-11 12:05:00,36.9,31.3,29.92,West,270,0.0,0.0,80,0.07,,,0.09,pywws,2013-02-11 17:05:00,
2013-02-11 12:11:00,37.2,31.6,29.92,West,270,0.0,0.0,80,0.06,,,0.09,pywws,2013-02-11 17:11:00,
2013-02-11 12:16:00,36.9,31.3,29.91,West,270,0.0,0.0,80,0.06,,,0.09,pywws,2013-02-11 17:16:00,
2013-02-11 12:23:00,37.0,31.5,29.91,West,270,0.0,0.0,80,0.06,,,0.11,pywws,2013-02-11 17:23:00,
2013-02-11 12:29:00,37.4,33.0,29.90,SW,225,0.0,0.0,84,0.07,,,0.12,pywws,2013-02-11 17:29:00,
2013-02-11 12:35:00,38.3,33.9,29.90,SW,225,0.0,0.0,84,0.08,,,0.13,pywws,2013-02-11 17:35:00,
2013-02-11 12:40:00,38.1,33.7,29.89,West,270,0.0,0.0,84,0.07,,,0.13,pywws,2013-02-11 17:40:00,
2013-02-11 12:46:00,38.7,34.3,29.88,West,270,0.0,0.0,84,0.08,,,0.14,pywws,2013-02-11 17:46:00,
2013-02-11 12:52:00,39.4,34.7,29.87,West,270,0.0,0.0,83,0.07,,,0.14,pywws,2013-02-11 17:52:00,
2013-02-11 12:57:00,38.8,34.4,29.87,West,270,0.0,0.0,84,0.08,,,0.15,pywws,2013-02-11 17:57:00,
2013-02-11 13:04:00,38.1,33.7,29.86,West,270,0.0,0.0,84,0.07,,,0.15,pywws,2013-02-11 18:04:00,
2013-02-11 13:09:00,37.9,33.5,29.85,West,270,0.0,0.0,84,0.07,,,0.17,pywws,2013-02-11 18:09:00,
2013-02-11 13:15:00,38.3,33.9,29.85,West,270,0.0,0.0,84,0.07,,,0.17,pywws,2013-02-11 18:15:00,
2013-02-11 13:20:00,38.7,34.3,29.84,West,270,0.0,0.0,84,0.07,,,0.17,pywws,2013-02-11 18:20:00,
2013-02-11 13:26:00,40.1,35.4,29.83,West,270,0.0,0.0,83,0.05,,,0.17,pywws,2013-02-11 18:26:00,
2013-02-11 13:32:00,38.5,33.8,29.83,West,270,0.0,0.0,83,0.05,,,0.17,pywws,2013-02-11 18:32:00,
2013-02-11 13:37:00,39.4,34.4,29.82,West,270,0.0,0.0,82,0.04,,,0.17,pywws,2013-02-11 18:37:00,
2013-02-11 13:43:00,39.4,34.4,29.81,West,270,0.0,0.0,82,0.04,,,0.17,pywws,2013-02-11 18:43:00,
2013-02-11 13:48:00,39.7,35.0,29.81,West,270,0.0,0.0,83,0.02,,,0.17,pywws,2013-02-11 18:48:00,
2013-02-11 13:54:00,39.2,34.5,29.81,West,270,0.0,0.0,83,0.04,,,0.18,pywws,2013-02-11 18:54:00,
2013-02-11 14:00:00,39.0,34.9,29.80,West,270,0.0,0.0,85,0.02,,,0.18,pywws,2013-02-11 19:00:00,
2013-02-11 14:05:00,38.8,34.7,29.80,West,270,0.0,0.0,85,0.02,,,0.18,pywws,2013-02-11 19:05:00,
2013-02-11 14:11:00,39.2,34.8,29.80,West,270,0.0,0.0,84,0.01,,,0.18,pywws,2013-02-11 19:11:00,
2013-02-11 14:16:00,38.8,34.4,29.79,West,270,0.0,0.0,84,0.02,,,0.19,pywws,2013-02-11 19:16:00,
2013-02-11 14:22:00,39.0,34.9,29.79,West,270,0.0,0.0,85,0.02,,,0.19,pywws,2013-02-11 19:22:00,
2013-02-11 14:28:00,38.7,34.5,29.78,West,270,0.0,0.0,85,0.02,,,0.19,pywws,2013-02-11 19:28:00,
2013-02-11 14:33:00,37.9,33.8,29.78,West,270,0.0,0.0,85,0.02,,,0.19,pywws,2013-02-11 19:33:00,
2013-02-11 14:39:00,37.8,33.7,29.78,West,270,0.0,0.0,85,0.02,,,0.19,pywws,2013-02-11 19:39:00,
2013-02-11 14:44:00,36.9,31.6,29.78,West,270,0.0,0.0,81,0.02,,,0.19,pywws,2013-02-11 19:44:00,
2013-02-11 14:50:00,36.5,31.2,29.78,West,270,0.0,0.0,81,0.01,,,0.19,pywws,2013-02-11 19:50:00,
2013-02-11 14:56:00,37.0,31.8,29.78,North,0,0.0,0.0,81,0.01,,,0.19,pywws,2013-02-11 19:56:00,
2013-02-11 15:03:00,37.0,31.8,29.78,West,270,0.0,0.0,81,0.01,,,0.19,pywws,2013-02-11 20:03:00,
2013-02-11 15:09:00,37.0,31.8,29.77,North,0,0.0,0.0,81,0.01,,,0.19,pywws,2013-02-11 20:09:00,
2013-02-11 15:15:00,37.8,34.0,29.77,West,270,0.0,0.0,86,0.01,,,0.19,pywws,2013-02-11 20:15:00,
2013-02-11 15:20:00,39.0,35.2,29.77,West,270,0.0,0.0,86,0.00,,,0.19,pywws,2013-02-11 20:20:00,
2013-02-11 15:26:00,38.3,34.8,29.77,West,270,0.0,0.0,87,0.00,,,0.19,pywws,2013-02-11 20:26:00,
2013-02-11 15:32:00,40.8,37.0,29.76,East,90,0.0,0.0,86,0.00,,,0.19,pywws,2013-02-11 20:32:00,
2013-02-11 15:37:00,42.4,38.6,29.75,SW,225,0.0,0.0,86,0.00,,,0.19,pywws,2013-02-11 20:37:00,
2013-02-11 15:43:00,41.4,37.5,29.75,West,270,0.0,0.0,86,0.00,,,0.19,pywws,2013-02-11 20:43:00,
2013-02-11 15:48:00,41.5,38.0,29.74,West,270,0.0,0.0,87,0.00,,,0.19,pywws,2013-02-11 20:48:00,
2013-02-11 15:54:00,43.2,39.3,29.74,South,180,0.0,0.0,86,0.00,,,0.19,pywws,2013-02-11 20:54:00,
2013-02-11 16:00:00,42.6,39.3,29.73,SW,225,0.0,0.0,88,0.00,,,0.19,pywws,2013-02-11 21:00:00,
2013-02-11 16:05:00,41.0,37.7,29.73,SW,225,0.0,0.0,88,0.00,,,0.19,pywws,2013-02-11 21:05:00,
2013-02-11 16:11:00,40.8,37.8,29.72,South,180,0.0,0.0,89,0.00,,,0.19,pywws,2013-02-11 21:11:00,
2013-02-11 16:16:00,40.1,36.8,29.72,South,180,0.0,0.0,88,0.00,,,0.19,pywws,2013-02-11 21:16:00,
2013-02-11 16:22:00,39.2,35.9,29.72,South,180,0.0,0.0,88,0.00,,,0.19,pywws,2013-02-11 21:22:00,
2013-02-11 16:28:00,39.9,36.7,29.72,South,180,0.0,0.0,88,0.00,,,0.19,pywws,2013-02-11 21:28:00,
2013-02-11 16:33:00,39.4,36.1,29.72,South,180,0.0,0.0,88,0.00,,,0.19,pywws,2013-02-11 21:33:00,
2013-02-11 16:39:00,39.6,36.3,29.71,East,90,0.0,0.0,88,0.00,,,0.19,pywws,2013-02-11 21:39:00,
2013-02-11 16:44:00,39.4,36.1,29.71,East,90,0.0,0.0,88,0.00,,,0.19,pywws,2013-02-11 21:44:00,
2013-02-11 16:50:00,38.1,35.2,29.71,East,90,0.0,0.0,89,0.00,,,0.19,pywws,2013-02-11 21:50:00,
2013-02-11 16:56:00,37.4,34.5,29.71,East,90,0.0,0.0,89,0.00,,,0.19,pywws,2013-02-11 21:56:00,
2013-02-11 17:01:00,36.9,32.8,29.70,East,90,0.0,0.0,85,0.00,,,0.19,pywws,2013-02-11 22:01:00,
2013-02-11 17:08:00,37.2,33.1,29.71,East,90,0.0,0.0,85,0.00,,,0.19,pywws,2013-02-11 22:08:00,
2013-02-11 17:15:00,36.3,32.3,29.70,West,270,0.0,0.0,85,0.00,,,0.19,pywws,2013-02-11 22:15:00,
2013-02-11 17:22:00,36.7,32.6,29.70,West,270,0.0,0.0,85,0.00,,,0.19,pywws,2013-02-11 22:22:00,
2013-02-11 17:31:00,36.3,32.3,29.70,West,270,0.0,0.0,85,0.00,,,0.19,pywws,2013-02-11 22:31:00,
2013-02-11 17:36:00,36.1,32.1,29.70,West,270,0.0,0.0,85,0.00,,,0.19,pywws,2013-02-11 22:36:00,
2013-02-11 17:42:00,36.5,32.4,29.70,West,270,0.0,0.0,85,0.00,,,0.19,pywws,2013-02-11 22:42:00,
2013-02-11 17:48:00,36.5,32.4,29.69,West,270,0.0,0.0,85,0.00,,,0.19,pywws,2013-02-11 22:48:00,
2013-02-11 17:53:00,36.1,32.1,29.69,West,270,0.0,0.0,85,0.00,,,0.19,pywws,2013-02-11 22:53:00,
2013-02-11 18:00:00,36.9,32.8,29.70,West,270,0.0,0.0,85,0.00,,,0.19,pywws,2013-02-11 23:00:00,
2013-02-11 18:06:00,37.2,33.1,29.69,East,90,0.0,0.0,85,0.00,,,0.19,pywws,2013-02-11 23:06:00,
2013-02-11 18:12:00,36.9,32.8,29.69,East,90,0.0,0.0,85,0.00,,,0.19,pywws,2013-02-11 23:12:00,
2013-02-11 18:17:00,37.8,34.8,29.69,South,180,0.0,0.0,89,0.00,,,0.19,pywws,2013-02-11 23:17:00,
2013-02-11 18:23:00,40.6,37.7,29.69,West,270,0.0,0.0,89,0.00,,,0.19,pywws,2013-02-11 23:23:00,
2013-02-11 18:28:00,40.6,37.7,29.68,South,180,0.0,0.0,89,0.00,,,0.19,pywws,2013-02-11 23:28:00,
2013-02-11 18:34:00,41.0,37.7,29.68,West,270,0.0,0.0,88,0.00,,,0.19,pywws,2013-02-11 23:34:00,
2013-02-11 18:40:00,41.7,38.7,29.68,SW,225,0.0,0.0,89,0.00,,,0.19,pywws,2013-02-11 23:40:00,
2013-02-11 18:45:00,40.6,37.9,29.68,South,180,0.0,0.0,90,0.00,,,0.19,pywws,2013-02-11 23:45:00,
2013-02-11 18:51:00,41.7,38.7,29.67,South,180,0.0,0.0,89,0.00,,,0.19,pywws,2013-02-11 23:51:00,
2013-02-11 18:56:00,41.2,38.2,29.67,West,270,0.0,0.0,89,0.00,,,0.19,pywws,2013-02-11 23:56:00,
2013-02-11 19:02:00,41.2,38.2,29.67,West,270,0.0,0.0,89,0.00,,,0.19,pywws,2013-02-12 00:02:00,
2013-02-11 19:08:00,41.0,38.0,29.67,West,270,0.0,0.0,89,0.00,,,0.19,pywws,2013-02-12 00:08:00,
2013-02-11 19:13:00,41.4,38.4,29.67,SW,225,0.0,0.0,89,0.00,,,0.19,pywws,2013-02-12 00:13:00,
2013-02-11 19:19:00,39.9,37.2,29.67,West,270,0.0,0.0,90,0.00,,,0.19,pywws,2013-02-12 00:19:00,
2013-02-11 19:24:00,41.2,38.2,29.66,West,270,0.0,0.0,89,0.00,,,0.19,pywws,2013-02-12 00:24:00,
2013-02-11 19:30:00,41.7,38.7,29.66,South,180,0.0,0.0,89,0.00,,,0.19,pywws,2013-02-12 00:30:00,
2013-02-11 19:36:00,39.2,36.5,29.66,South,180,0.0,0.0,90,0.00,,,0.19,pywws,2013-02-12 00:36:00,
2013-02-11 19:41:00,39.4,36.7,29.65,South,180,0.0,0.0,90,0.00,,,0.19,pywws,2013-02-12 00:41:00,
2013-02-11 19:47:00,38.8,36.4,29.65,South,180,0.0,0.0,91,0.00,,,0.19,pywws,2013-02-12 00:47:00,
2013-02-11 19:52:00,38.7,36.3,29.65,South,180,0.0,0.0,91,0.00,,,0.19,pywws,2013-02-12 00:52:00,
2013-02-11 19:58:00,38.8,36.4,29.64,West,270,0.0,0.0,91,0.00,,,0.19,pywws,2013-02-12 00:58:00,
2013-02-11 20:04:00,39.4,36.7,29.64,West,270,0.0,0.0,90,0.00,,,0.19,pywws,2013-02-12 01:04:00,
2013-02-11 20:09:00,41.7,38.7,29.64,West,270,0.0,0.0,89,0.00,,,0.19,pywws,2013-02-12 01:09:00,
2013-02-11 20:15:00,40.8,38.1,29.64,South,180,0.0,0.0,90,0.00,,,0.19,pywws,2013-02-12 01:15:00,
2013-02-11 20:20:00,41.2,38.5,29.63,West,270,0.0,0.0,90,0.00,,,0.19,pywws,2013-02-12 01:20:00,
2013-02-11 20:26:00,40.5,37.8,29.63,West,270,0.0,0.0,90,0.00,,,0.19,pywws,2013-02-12 01:26:00,
2013-02-11 20:32:00,40.1,37.4,29.63,SE,135,0.0,0.0,90,0.00,,,0.19,pywws,2013-02-12 01:32:00,
2013-02-11 20:37:00,40.8,38.4,29.63,SW,225,0.0,0.7,91,0.00,,,0.19,pywws,2013-02-12 01:37:00,
2013-02-11 20:43:00,42.1,39.4,29.63,South,180,0.0,0.0,90,0.00,,,0.19,pywws,2013-02-12 01:43:00,
2013-02-11 20:48:00,41.7,39.0,29.63,SW,225,0.0,0.0,90,0.00,,,0.19,pywws,2013-02-12 01:48:00,
2013-02-11 20:54:00,42.1,39.4,29.63,SW,225,0.0,0.0,90,0.00,,,0.19,pywws,2013-02-12 01:54:00,
2013-02-11 21:00:00,41.2,38.5,29.63,South,180,0.0,0.0,90,0.00,,,0.19,pywws,2013-02-12 02:00:00,
2013-02-11 21:05:00,41.9,39.2,29.63,North,0,0.0,0.0,90,0.00,,,0.19,pywws,2013-02-12 02:05:00,
2013-02-11 21:11:00,41.4,38.7,29.63,SW,225,0.0,0.0,90,0.00,,,0.19,pywws,2013-02-12 02:11:00,
2013-02-11 21:16:00,41.7,39.0,29.62,West,270,0.0,0.0,90,0.00,,,0.19,pywws,2013-02-12 02:16:00,
2013-02-11 21:23:00,41.7,39.0,29.62,West,270,0.0,0.0,90,0.00,,,0.19,pywws,2013-02-12 02:23:00,
2013-02-11 21:28:00,41.2,38.5,29.62,South,180,0.0,0.0,90,0.00,,,0.19,pywws,2013-02-12 02:28:00,
2013-02-11 21:34:00,41.7,39.0,29.62,West,270,0.0,0.0,90,0.00,,,0.19,pywws,2013-02-12 02:34:00,
2013-02-11 21:40:00,41.5,38.8,29.62,West,270,0.0,0.0,90,0.00,,,0.19,pywws,2013-02-12 02:40:00,
2013-02-11 21:45:00,41.5,38.8,29.63,South,180,0.0,0.0,90,0.00,,,0.19,pywws,2013-02-12 02:45:00,
2013-02-11 21:51:00,41.9,39.2,29.63,West,270,0.0,0.0,90,0.00,,,0.19,pywws,2013-02-12 02:51:00,
2013-02-11 21:56:00,41.2,38.5,29.62,West,270,0.0,0.0,90,0.00,,,0.19,pywws,2013-02-12 02:56:00,
2013-02-11 22:02:00,41.5,38.8,29.62,West,270,0.0,0.0,90,0.00,,,0.19,pywws,2013-02-12 03:02:00,
2013-02-11 22:08:00,41.4,38.7,29.62,North,0,0.0,0.0,90,0.00,,,0.19,pywws,2013-02-12 03:08:00,
2013-02-11 22:13:00,40.8,38.4,29.62,SE,135,0.0,0.0,91,0.00,,,0.19,pywws,2013-02-12 03:13:00,
2013-02-11 22:19:00,41.2,38.5,29.62,West,270,0.0,0.0,90,0.00,,,0.19,pywws,2013-02-12 03:19:00,
2013-02-11 22:25:00,41.0,38.3,29.62,North,0,0.0,0.0,90,0.00,,,0.19,pywws,2013-02-12 03:25:00,
2013-02-11 22:30:00,41.4,38.7,29.62,West,270,0.0,0.0,90,0.00,,,0.19,pywws,2013-02-12 03:30:00,
2013-02-11 22:36:00,41.0,38.3,29.62,West,270,0.0,0.0,90,0.00,,,0.19,pywws,2013-02-12 03:36:00,
2013-02-11 22:41:00,41.2,38.5,29.62,South,180,0.0,0.0,90,0.00,,,0.19,pywws,2013-02-12 03:41:00,
2013-02-11 22:47:00,40.1,37.7,29.62,West,270,0.0,0.0,91,0.00,,,0.19,pywws,2013-02-12 03:47:00,
2013-02-11 22:53:00,40.3,37.9,29.61,West,270,0.0,0.0,91,0.00,,,0.19,pywws,2013-02-12 03:53:00,
2013-02-11 22:58:00,40.6,38.2,29.62,West,270,0.0,0.0,91,0.00,,,0.19,pywws,2013-02-12 03:58:00,
2013-02-11 23:04:00,39.0,36.9,29.62,North,0,0.0,0.0,92,0.00,,,0.19,pywws,2013-02-12 04:04:00,
2013-02-11 23:09:00,39.9,37.5,29.62,West,270,0.0,0.0,91,0.00,,,0.19,pywws,2013-02-12 04:09:00,
2013-02-11 23:15:00,39.4,36.7,29.63,West,270,0.0,0.0,90,0.00,,,0.19,pywws,2013-02-12 04:15:00,
2013-02-11 23:21:00,40.1,37.7,29.63,West,270,0.0,0.0,91,0.00,,,0.19,pywws,2013-02-12 04:21:00,
2013-02-11 23:27:00,39.6,36.9,29.63,South,180,0.0,0.0,90,0.00,,,0.19,pywws,2013-02-12 04:27:00,
2013-02-11 23:33:00,39.4,36.7,29.62,North,0,0.0,0.0,90,0.00,,,0.19,pywws,2013-02-12 04:33:00,
2013-02-11 23:38:00,40.3,37.9,29.63,SW,225,0.0,0.0,91,0.00,,,0.19,pywws,2013-02-12 04:38:00,
2013-02-11 23:44:00,40.1,37.7,29.63,West,270,0.0,0.0,91,0.00,,,0.19,pywws,2013-02-12 04:44:00,
2013-02-11 23:49:00,39.9,37.2,29.63,West,270,0.0,0.0,90,0.00,,,0.19,pywws,2013-02-12 04:49:00,
2013-02-11 23:55:00,39.9,37.2,29.62,East,90,0.0,0.0,90,0.00,,,0.19,pywws,2013-02-12 04:55:00,